Time;durP1;ratioP1;P1;durP2;ratioP2;P2;SDS_P1;SDS_P2;PMS_P1;PMS_P2;Temp;Humidity;BMP_temperature;BMP_pressure;BME280_temperature;BME280_humidity;BME280_pressure;Samples;Min_cycle;Max_cycle;Signal;HPM_P1;HPM_P2
2022/04/07 00:00:22;;;;;;;4.27;1.87;;;;;;;18.54;47.18;99120.84;5032059;28;20060;-72
2022/04/07 00:02:48;;;;;;;5.53;1.17;;;;;;;18.54;47.18;99120.84;5033571;28;20056;-72
2022/04/07 00:05:13;;;;;;;3.53;1.30;;;;;;;16.65;52.23;99122.63;5029978;28;20033;-72
2022/04/07 00:07:38;;;;;;;13.80;2.17;;;;;;;18.00;48.48;99112.19;5012151;28;20022;-72
2022/04/07 00:10:05;;;;;;;7.17;1.07;;;;;;;17.09;50.89;99111.06;5023565;28;20021;-72
2022/04/07 00:12:33;;;;;;;3.77;1.50;;;;;;;16.96;40.93;99107.53;5031405;28;20021;-72
2022/04/07 00:15:00;;;;;;;7.50;1.93;;;;;;;17.60;49.83;99112.22;5029807;28;20116;-72
2022/04/07 00:17:27;;;;;;;8.97;1.77;;;;;;;-146.34;48.47;99090.41;5014897;28;20452;-72
2022/04/07 00:19:52;;;;;;;8.77;1.80;;;;;;;17.06;49.84;99095.44;5021685;28;20165;-73
2022/04/07 00:22:18;;;;;;;12.00;1.63;;;;;;;17.06;49.84;77849.81;5020947;28;20057;-72
2022/04/07 00:24:43;;;;;;;10.50;2.23;;;;;;;18.36;47.28;99096.53;5022440;28;20052;-72
2022/04/07 00:27:09;;;;;;;14.03;2.53;;;;;;;17.73;48.65;99097.19;5021439;28;20120;-72
2022/04/07 00:29:34;;;;;;;6.67;2.20;;;;;;;18.20;46.95;99081.72;5023410;28;20025;-72
2022/04/07 00:32:03;;;;;;;12.77;2.43;;;;;;;17.48;49.35;99076.03;5012203;28;20026;-72
2022/04/07 00:34:29;;;;;;;8.20;2.07;;;;;;;17.88;48.27;77956.56;5025713;28;20029;-72
2022/04/07 00:36:55;;;;;;;11.73;1.50;;;;;;;17.88;48.27;99082.13;5011976;28;20500;-72
2022/04/07 00:39:20;;;;;;;9.57;2.10;;;;;;;17.22;49.88;99075.97;5014214;28;20508;-72
2022/04/07 00:41:45;;;;;;;11.27;2.40;;;;;;;17.22;49.88;99075.97;5030696;28;20097;-72
2022/04/07 00:44:11;;;;;;;17.00;2.97;;;;;;;17.52;48.46;99059.03;5028694;28;20258;-72
2022/04/07 00:46:38;;;;;;;6.73;1.40;;;;;;;17.09;49.94;99058.28;5019394;28;20156;-72
2022/04/07 00:49:04;;;;;;;13.03;2.17;;;;;;;16.67;51.23;99048.69;5012712;28;20025;-72
2022/04/07 00:51:30;;;;;;;5.83;1.73;;;;;;;18.06;47.20;99048.31;5011358;28;20075;-72
2022/04/07 00:53:56;;;;;;;8.63;2.47;;;;;;;18.06;47.20;99048.31;5010244;28;20030;-72
2022/04/07 00:56:23;;;;;;;9.77;2.97;;;;;;;17.46;48.13;99034.72;5027049;28;20075;-71
2022/04/07 00:58:49;;;;;;;15.67;2.37;;;;;;;17.30;49.71;99034.06;5032377;28;20075;-72
2022/04/07 01:01:17;;;;;;;11.73;3.33;;;;;;;17.07;50.85;99028.50;5013896;28;20053;-72
2022/04/07 01:03:43;;;;;;;12.33;3.47;;;;;;;17.55;49.06;99027.97;5012528;28;20018;-72
2022/04/07 01:06:08;;;;;;;13.43;2.23;;;;;;;17.28;49.97;99020.97;5024535;28;20052;-72
2022/04/07 01:08:34;;;;;;;7.47;2.20;;;;;;;17.54;49.68;99014.88;5011631;28;20474;-72
2022/04/07 01:11:00;;;;;;;5.53;2.13;;;;;;;17.04;51.12;99007.59;5012874;28;20033;-72
2022/04/07 01:13:43;;;;;;;6.73;1.83;;;;;;;17.04;51.12;-22452.19;5010422;28;20026;-72
2022/04/07 01:16:08;;;;;;;;;;;;;;;17.89;49.90;98998.41;5011833;28;20497;-72
2022/04/07 01:18:33;;;;;;;9.13;2.33;;;;;;;16.71;52.70;98992.97;5030500;28;19919;-72
2022/04/07 01:20:59;;;;;;;9.77;1.60;;;;;;;17.05;53.26;98977.63;5018302;28;20076;-72
2022/04/07 01:23:30;;;;;;;11.27;1.90;;;;;;;17.05;53.26;98977.63;5010866;28;20048;-72
2022/04/07 01:25:55;;;;;;;12.00;2.07;;;;;;;17.42;50.67;98972.50;5044564;28;20030;-72
2022/04/07 01:28:21;;;;;;;18.17;2.67;;;;;;;18.01;49.14;98965.88;5027478;28;20641;-72
2022/04/07 01:30:46;;;;;;;13.87;2.30;;;;;;;17.88;49.30;98963.19;5020677;28;20033;-72
2022/04/07 01:33:12;;;;;;;12.30;2.27;;;;;;;17.75;50.53;98952.63;5011371;28;20124;-72
2022/04/07 01:35:38;;;;;;;15.93;3.23;;;;;;;17.75;50.53;98952.63;5028790;28;20030;-72
2022/04/07 01:38:03;;;;;;;14.33;2.23;;;;;;;17.72;48.88;98929.09;5029870;28;20390;-71
2022/04/07 01:40:33;;;;;;;14.27;2.67;;;;;;;16.76;52.27;98932.00;5027757;28;20481;-71
2022/04/07 01:43:04;;;;;;;13.50;2.53;;;;;;;17.42;50.92;98935.53;5028375;28;20022;-71
2022/04/07 01:45:31;;;;;;;17.77;1.93;;;;;;;17.97;48.52;98928.22;5014750;28;20504;-71
2022/04/07 01:47:57;;;;;;;18.47;2.33;;;;;;;17.69;49.05;98908.13;5030878;28;20029;-71
2022/04/07 01:50:25;;;;;;;15.03;3.47;;;;;;;17.22;50.31;98904.38;5025576;28;20021;-71
2022/04/07 01:52:51;;;;;;;15.27;2.63;;;;;;;17.30;50.67;98908.16;5025037;28;20397;-71
2022/04/07 01:55:17;;;;;;;10.50;2.37;;;;;;;17.66;40.32;98897.78;5013193;28;20021;-71
2022/04/07 01:57:44;;;;;;;13.50;2.20;;;;;;;16.62;53.73;98885.41;5017026;28;20033;-71
2022/04/07 02:00:10;;;;;;;17.03;2.83;;;;;;;16.70;54.37;98885.75;5026976;28;20065;-71
2022/04/07 02:02:35;;;;;;;15.83;2.27;;;;;;;-146.34;54.55;98881.72;5010243;28;20033;-71
2022/04/07 02:05:08;;;;;;;16.43;2.10;;;;;;;16.66;52.63;98886.91;5010819;28;20052;-71
2022/04/07 02:07:34;;;;;;;;;;;;;;;16.65;53.73;98874.69;5031249;28;20029;-71
2022/04/07 02:10:00;;;;;;;17.23;1.90;;;;;;;16.40;54.55;98871.03;5027414;28;19920;-71
2022/04/07 02:12:29;;;;;;;10.60;2.60;;;;;;;17.46;51.16;98892.13;5011623;28;20168;-71
2022/04/07 02:14:59;;;;;;;10.10;2.90;;;;;;;17.13;51.25;98884.69;5009676;28;20030;-71
2022/04/07 02:17:25;;;;;;;15.23;3.17;;;;;;;18.22;48.71;98856.88;5014839;28;20037;-71
2022/04/07 02:19:51;;;;;;;8.90;1.60;;;;;;;16.73;52.77;98861.84;5022343;28;20082;-72
2022/04/07 02:22:17;;;;;;;18.60;3.60;;;;;;;16.81;50.93;98873.66;5026020;28;20056;-73
2022/04/07 02:24:43;;;;;;;12.93;1.90;;;;;;;17.04;50.42;98854.50;5018143;28;20026;-71
2022/04/07 02:27:08;;;;;;;13.27;2.53;;;;;;;17.52;49.44;98847.75;5015263;28;20026;-71
2022/04/07 02:29:37;;;;;;;24.87;3.60;;;;;;;16.54;51.13;98866.63;5022055;28;20017;-71
2022/04/07 02:32:04;;;;;;;11.67;2.57;;;;;;;16.80;50.28;98856.97;5025891;28;20034;-71
2022/04/07 02:34:30;;;;;;;17.80;2.30;;;;;;;16.36;53.43;98842.31;5010715;28;20033;-71
2022/04/07 02:36:55;;;;;;;13.40;2.57;;;;;;;16.09;53.10;98830.84;5021787;28;20040;-70
2022/04/07 02:39:21;;;;;;;14.13;2.03;;;;;;;17.72;47.50;98839.25;5019787;28;20036;-71
2022/04/07 02:41:46;;;;;;;19.23;3.90;;;;;;;17.01;49.88;98836.25;5021789;28;20029;-71
2022/04/07 02:44:11;;;;;;;14.03;3.67;;;;;;;16.66;51.40;98813.06;5017463;28;20030;-71
2022/04/07 02:46:38;;;;;;;18.13;2.50;;;;;;;16.73;50.83;98819.63;5010310;28;20100;-70
2022/04/07 02:49:03;;;;;;;19.03;3.17;;;;;;;16.60;50.94;98814.31;5020749;28;20052;-70
2022/04/07 02:51:31;;;;;;;15.77;2.67;;;;;;;16.60;50.94;98814.31;5029284;28;20033;-71
2022/04/07 02:53:59;;;;;;;17.20;3.67;;;;;;;16.99;50.43;98809.09;5016208;28;20033;-71
2022/04/07 02:56:25;;;;;;;17.93;2.47;;;;;;;17.56;48.25;98799.03;5010474;28;20319;-71
2022/04/07 02:58:51;;;;;;;15.80;2.23;;;;;;;17.81;47.74;98785.72;5017854;28;20030;-73
2022/04/07 03:01:16;;;;;;;14.63;2.10;;;;;;;17.81;47.74;98785.72;5010755;28;20026;-72
2022/04/07 03:03:42;;;;;;;23.33;2.80;;;;;;;17.81;47.74;98785.72;5026012;28;20370;-72
2022/04/07 03:06:07;;;;;;;17.50;2.93;;;;;;;18.38;47.01;98772.81;5014597;28;20029;-72
2022/04/07 03:08:33;;;;;;;18.27;2.37;;;;;;;18.38;47.01;98772.81;5015327;28;20069;-72
2022/04/07 03:11:00;;;;;;;16.63;2.63;;;;;;;-49.16;50.79;98769.41;5034054;28;20481;-72
2022/04/07 03:13:25;;;;;;;17.60;2.43;;;;;;;17.09;49.72;98757.38;5024550;28;20028;-72
2022/04/07 03:15:53;;;;;;;18.17;3.00;;;;;;;17.14;49.71;98759.69;5014379;28;20061;-71
2022/04/07 03:18:19;;;;;;;23.37;3.20;;;;;;;17.43;48.22;98741.81;5020325;28;20109;-72
2022/04/07 03:20:45;;;;;;;16.00;3.13;;;;;;;16.30;51.23;98759.22;5012605;28;20114;-72
2022/04/07 03:23:11;;;;;;;21.10;3.20;;;;;;;17.94;48.51;98732.88;5033823;28;20104;-72
2022/04/07 03:25:39;;;;;;;22.90;4.10;;;;;;;17.87;48.56;98728.09;5016933;28;20025;-72
2022/04/07 03:28:06;;;;;;;19.73;2.10;;;;;;;16.88;50.46;98714.81;5020196;28;20017;-72
2022/04/07 03:30:31;;;;;;;13.87;2.30;;;;;;;17.50;49.33;98707.84;5028066;28;20057;-72
2022/04/07 03:32:57;;;;;;;29.70;4.60;;;;;;;17.27;50.64;98702.44;5021290;28;20582;-72
2022/04/07 03:35:22;;;;;;;16.27;2.27;;;;;;;17.27;50.64;98702.44;5030137;28;20040;-72
2022/04/07 03:37:47;;;;;;;14.20;2.37;;;;;;;18.13;48.55;98694.47;5030828;28;20448;-72
2022/04/07 03:40:13;;;;;;;13.67;2.60;;;;;;;16.67;52.60;98688.16;5030054;28;20025;-72
2022/04/07 03:42:39;;;;;;;12.97;2.90;;;;;;;16.83;52.77;98681.78;5011663;28;20033;-71
2022/04/07 03:45:05;;;;;;;16.80;2.37;;;;;;;17.11;51.31;98680.72;5016904;28;20071;-72
2022/04/07 03:47:31;;;;;;;15.87;2.00;;;;;;;16.56;52.88;98670.44;5017725;28;20036;-73
2022/04/07 03:49:57;;;;;;;20.93;3.77;;;;;;;16.04;56.34;98664.28;5022647;28;20025;-72
2022/04/07 03:52:23;;;;;;;11.73;2.03;;;;;;;16.65;53.72;98624.13;5017401;28;20080;-72
2022/04/07 03:54:48;;;;;;;18.37;2.70;;;;;;;-146.34;53.72;98624.13;5016510;28;20393;-71
2022/04/07 03:57:14;;;;;;;16.40;2.57;;;;;;;17.57;50.81;98592.03;5017096;28;20408;-72
2022/04/07 03:59:42;;;;;;;12.10;2.20;;;;;;;16.93;52.43;98601.09;5018855;28;20434;-72
2022/04/07 04:02:08;;;;;;;12.60;2.50;;;;;;;17.13;53.81;98579.38;5017279;28;20535;-72
2022/04/07 04:04:33;;;;;;;16.73;3.50;;;;;;;16.96;51.92;98585.03;5031082;28;20025;-72
2022/04/07 04:06:59;;;;;;;14.17;2.13;;;;;;;16.07;56.24;98585.03;5019708;28;20413;-72
2022/04/07 04:09:24;;;;;;;12.90;2.23;;;;;;;16.56;53.52;98569.38;5027148;28;20026;-71
2022/04/07 04:11:50;;;;;;;9.63;2.03;;;;;;;17.50;49.98;98556.47;5017164;28;20037;-72
2022/04/07 04:14:15;;;;;;;15.57;2.70;;;;;;;17.50;49.98;98556.47;5015622;28;20025;-72
2022/04/07 04:16:44;;;;;;;7.53;1.30;;;;;;;16.37;53.03;98533.75;5015598;28;20116;-72
2022/04/07 04:19:09;;;;;;;13.37;1.80;;;;;;;16.99;51.51;98524.09;5057518;28;20076;-72
2022/04/07 04:21:34;;;;;;;10.23;2.27;;;;;;;16.99;51.51;98524.09;5019467;28;20022;-72
2022/04/07 04:24:00;;;;;;;13.40;1.63;;;;;;;16.99;51.51;98524.09;5014735;28;20123;-72
2022/04/07 04:26:26;;;;;;;13.67;1.87;;;;;;;16.52;54.04;98509.91;5026397;28;20060;-72
2022/04/07 04:28:52;;;;;;;6.37;1.47;;;;;;;16.52;52.78;98504.63;5018506;28;20474;-72
2022/04/07 04:31:17;;;;;;;9.23;1.53;;;;;;;-48.76;52.78;98504.63;5014077;28;20045;-72
2022/04/07 04:33:42;;;;;;;8.03;1.60;;;;;;;16.52;52.78;98504.63;5045056;28;20030;-72
2022/04/07 04:36:09;;;;;;;7.20;1.40;;;;;;;15.58;57.27;98478.56;5021017;28;20034;-72
2022/04/07 04:38:34;;;;;;;7.83;1.17;;;;;;;16.30;55.20;98479.78;5012758;28;20022;-72
2022/04/07 04:41:00;;;;;;;7.60;1.53;;;;;;;15.62;57.37;98484.47;5023948;28;20599;-72
2022/04/07 04:43:25;;;;;;;6.77;1.37;;;;;;;15.19;59.30;98485.53;5027751;28;20029;-71
2022/04/07 04:45:50;;;;;;;9.20;1.70;;;;;;;15.46;59.67;98457.50;5037020;28;20034;-72
2022/04/07 04:48:16;;;;;;;12.07;1.80;;;;;;;15.27;59.82;98453.47;5010846;28;20040;-72
2022/04/07 04:50:41;;;;;;;7.70;2.70;;;;;;;15.27;59.82;98453.47;5027260;28;20120;-72
2022/04/07 04:53:06;;;;;;;11.03;2.17;;;;;;;15.63;58.00;98438.75;5028911;28;20029;-72
2022/04/07 04:55:32;;;;;;;17.67;1.67;;;;;;;16.59;53.93;98439.94;5021468;28;20030;-71
2022/04/07 04:57:57;;;;;;;16.37;2.03;;;;;;;17.23;0.00;98430.88;5013498;28;20049;-72
2022/04/07 05:00:22;;;;;;;9.93;1.70;;;;;;;17.23;53.09;98430.88;5011982;28;20393;-73
2022/04/07 05:02:48;;;;;;;4.77;1.30;;;;;;;16.87;52.82;98414.16;5012770;28;20597;-72
2022/04/07 05:05:13;;;;;;;2.67;1.03;;;;;;;16.87;52.82;98414.16;5012266;28;20025;-71
2022/04/07 05:07:38;;;;;;;4.77;0.97;;;;;;;16.47;55.09;98403.94;5024734;28;20036;-72
2022/04/07 05:10:07;;;;;;;11.30;2.03;;;;;;;16.65;54.25;98409.63;5014383;28;20045;-72
2022/04/07 05:12:33;;;;;;;8.53;1.53;;;;;;;16.43;54.60;98390.97;5011662;28;20033;-72
2022/04/07 05:14:59;;;;;;;7.07;1.50;;;;;;;16.67;54.96;98395.38;5014771;28;20104;-72
2022/04/07 05:17:24;;;;;;;6.47;1.10;;;;;;;16.84;52.92;98403.84;5020211;28;20075;-72
2022/04/07 05:19:50;;;;;;;5.80;1.20;;;;;;;15.09;63.21;98408.19;5021637;28;20059;-72
2022/04/07 05:22:15;;;;;;;14.70;2.17;;;;;;;15.73;59.46;98389.78;5017573;28;20030;-72
2022/04/07 05:24:41;;;;;;;5.03;1.03;;;;;;;15.81;59.26;98404.22;5015335;28;20056;-72
2022/04/07 05:27:06;;;;;;;6.63;1.20;;;;;;;15.35;62.75;98403.78;5028638;28;20469;-72
2022/04/07 05:29:31;;;;;;;10.13;1.60;;;;;;;15.35;62.75;124054.06;5030720;28;20028;-72
2022/04/07 05:31:57;;;;;;;4.00;1.53;;;;;;;16.58;56.81;98385.50;5019158;28;20049;-71
2022/04/07 05:34:22;;;;;;;5.80;1.80;;;;;;;16.58;56.81;77786.69;5021044;28;20134;-72
2022/04/07 05:36:47;;;;;;;9.80;1.43;;;;;;;16.94;55.46;98404.88;5012417;28;20025;-72
2022/04/07 05:39:13;;;;;;;5.13;1.50;;;;;;;16.87;54.41;98435.28;5020631;28;20022;-72
2022/04/07 05:41:39;;;;;;;6.10;1.47;;;;;;;15.55;62.31;98498.97;5027755;28;20068;-72
2022/04/07 05:44:05;;;;;;;2.33;0.30;;;;;;;14.23;54.28;98533.69;5015216;28;20041;-72
2022/04/07 05:46:30;;;;;;;5.40;0.60;;;;;;;11.91;63.96;98530.13;5016898;28;20025;-70
2022/04/07 05:48:55;;;;;;;3.00;0.80;;;;;;;9.96;81.56;98541.97;5024728;28;20397;-70
2022/04/07 05:51:21;;;;;;;2.97;0.40;;;;;;;10.20;78.91;98539.19;5024285;28;20037;-71
2022/04/07 05:53:46;;;;;;;0.90;0.90;;;;;;;10.20;78.91;98539.19;5025735;28;20014;-71
2022/04/07 05:56:12;;;;;;;6.73;0.70;;;;;;;10.20;100.00;98267.69;5033302;28;20072;-72
2022/04/07 05:58:37;;;;;;;1.30;0.30;;;;;;;10.80;69.20;98512.09;5033828;28;20025;-72
2022/04/07 06:01:02;;;;;;;2.73;0.70;;;;;;;;;;5018042;28;20125;-72
2022/04/07 06:03:28;;;;;;;9.03;1.07;;;;;;;12.16;66.71;98502.69;5026601;28;20029;-72
2022/04/07 06:05:53;;;;;;;3.80;0.63;;;;;;;12.16;66.71;98502.69;5028938;28;20082;-72
2022/04/07 06:08:19;;;;;;;4.60;0.77;;;;;;;191.34;72.08;98498.00;5020411;28;20037;-72
2022/04/07 06:10:45;;;;;;;6.43;1.03;;;;;;;11.65;71.06;98510.50;5013081;28;20017;-72
2022/04/07 06:13:11;;;;;;;7.07;1.40;;;;;;;11.65;100.00;74845.59;5025362;28;20026;-72
2022/04/07 06:15:37;;;;;;;2.53;0.73;;;;;;;11.67;100.00;58536.06;5028455;28;20028;-73
2022/04/07 06:18:05;;;;;;;5.47;0.90;;;;;;;-146.34;100.00;58536.06;5029052;28;20021;-72
2022/04/07 06:20:31;;;;;;;5.67;0.90;;;;;;;-146.34;100.00;58536.06;5024847;28;20049;-72
2022/04/07 06:22:57;;;;;;;10.30;1.60;;;;;;;-146.34;100.00;58536.06;5027386;28;20128;-72
2022/04/07 06:25:22;;;;;;;9.63;1.23;;;;;;;-146.34;100.00;58536.06;5011027;28;20205;-72
2022/04/07 06:27:48;;;;;;;8.97;0.80;;;;;;;-146.34;100.00;58536.06;5016096;28;20029;-72
2022/04/07 06:30:18;;;;;;;9.57;1.23;;;;;;;-146.34;100.00;58536.06;5009899;28;20036;-72
2022/04/07 06:32:45;;;;;;;5.97;1.33;;;;;;;-146.34;100.00;58536.06;5024653;28;20033;-72
2022/04/07 06:35:12;;;;;;;0.60;0.50;;;;;;;-146.34;100.00;58536.06;5010542;28;20057;-72
2022/04/07 06:37:53;;;;;;;12.80;1.30;;;;;;;-146.34;100.00;58536.06;5018514;28;20025;-72
2022/04/07 06:40:29;;;;;;;3.73;0.80;;;;;;;-146.34;100.00;58536.06;5019247;28;20022;-72
2022/04/07 06:42:56;;;;;;;4.63;1.27;;;;;;;-146.34;100.00;58536.06;5022535;28;20028;-72
2022/04/07 06:45:22;;;;;;;9.83;1.97;;;;;;;-146.34;100.00;58536.06;5026330;28;20024;-72
2022/04/07 06:47:48;;;;;;;4.27;0.90;;;;;;;-146.34;100.00;58536.06;5047036;28;20443;-71
2022/04/07 06:50:15;;;;;;;7.73;1.00;;;;;;;-146.34;100.00;58536.06;5027297;28;20022;-71
2022/04/07 06:52:41;;;;;;;3.20;1.00;;;;;;;-146.34;100.00;58536.06;5022176;28;20056;-71
2022/04/07 06:55:08;;;;;;;4.57;0.73;;;;;;;-146.34;100.00;58536.06;5020028;28;20032;-71
2022/04/07 06:58:08;;;;;;;5.57;1.00;;;;;;;-146.34;100.00;58536.06;5025830;28;20040;-71
2022/04/07 07:00:40;;;;;;;5.10;0.60;;;;;;;-146.34;100.00;58536.06;4991542;28;20067;-72
2022/04/07 07:03:05;;;;;;;7.97;1.00;;;;;;;-146.34;100.00;58536.06;5018821;28;20053;-72
2022/04/07 07:05:32;;;;;;;2.43;0.70;;;;;;;-146.34;100.00;58536.06;5027902;28;20026;-72
2022/04/07 07:08:13;;;;;;;3.60;0.70;;;;;;;-146.34;100.00;58536.06;5023342;28;20021;-72
2022/04/07 07:10:39;;;;;;;9.53;0.93;;;;;;;-146.34;100.00;58536.06;5015728;28;20026;-72
2022/04/07 07:13:04;;;;;;;2.03;0.70;;;;;;;-146.34;100.00;58536.06;5016912;28;20033;-72
2022/04/07 07:15:30;;;;;;;3.83;0.70;;;;;;;-146.34;100.00;58536.06;5017981;28;20048;-72
2022/04/07 07:17:55;;;;;;;4.87;0.73;;;;;;;-146.34;100.00;58536.06;5028406;28;20065;-72
2022/04/07 07:20:21;;;;;;;3.63;0.70;;;;;;;-146.34;100.00;58536.06;5025650;28;20026;-72
2022/04/07 07:22:46;;;;;;;1.43;0.53;;;;;;;-146.34;100.00;58536.06;5025072;28;20056;-71
2022/04/07 07:25:12;;;;;;;0.80;0.50;;;;;;;-146.34;100.00;58536.06;5026329;28;20025;-72
2022/04/07 07:27:42;;;;;;;13.93;1.93;;;;;;;-146.34;100.00;58536.06;5016303;28;20022;-72
2022/04/07 07:30:10;;;;;;;0.73;0.73;;;;;;;-146.34;100.00;58536.06;5010238;28;20461;-72
2022/04/07 07:32:39;;;;;;;3.30;0.70;;;;;;;-146.34;100.00;58536.06;5000789;28;21310;-72
2022/04/07 07:35:06;;;;;;;5.17;0.53;;;;;;;-146.34;100.00;58536.06;5019698;28;20054;-72
2022/04/07 07:37:32;;;;;;;3.77;0.67;;;;;;;-146.34;100.00;58536.06;5010381;28;20068;-72
2022/04/07 07:40:06;;;;;;;1.13;0.33;;;;;;;-146.34;100.00;58536.06;5018604;28;20065;-72
2022/04/07 07:42:31;;;;;;;1.83;0.60;;;;;;;-146.34;100.00;58536.06;5018367;28;20116;-72
2022/04/07 07:44:57;;;;;;;6.27;0.90;;;;;;;-146.34;100.00;58536.06;5032633;28;20032;-72
2022/04/07 07:47:22;;;;;;;5.53;0.67;;;;;;;-146.34;100.00;58536.06;5027073;28;20033;-72
2022/04/07 07:49:47;;;;;;;2.03;0.50;;;;;;;-146.34;100.00;58536.06;5025160;28;20466;-72
2022/04/07 07:52:13;;;;;;;3.07;0.67;;;;;;;-146.34;100.00;58536.06;5029006;28;20400;-72
2022/04/07 07:54:38;;;;;;;1.63;0.53;;;;;;;-146.34;100.00;58536.06;5032747;28;20266;-72
2022/04/07 07:57:03;;;;;;;1.63;0.63;;;;;;;-146.34;100.00;58536.06;5028479;28;20037;-72
2022/04/07 07:59:29;;;;;;;4.40;0.73;;;;;;;-146.34;100.00;58536.06;5035153;28;20044;-72
2022/04/07 08:01:54;;;;;;;3.67;0.87;;;;;;;-146.34;100.00;58536.06;5032931;28;20044;-72
2022/04/07 08:04:20;;;;;;;11.57;0.87;;;;;;;-146.34;100.00;58536.06;5030485;28;20033;-72
2022/04/07 08:06:45;;;;;;;3.80;1.20;;;;;;;-146.34;100.00;58536.06;5032608;28;20485;-72
2022/04/07 08:09:13;;;;;;;2.50;0.63;;;;;;;-146.34;100.00;58536.06;5030190;28;20485;-72
2022/04/07 08:11:42;;;;;;;2.63;0.40;;;;;;;-146.34;100.00;58536.06;5030055;28;20033;-71
2022/04/07 08:14:08;;;;;;;3.90;0.60;;;;;;;-146.34;100.00;58536.06;5059773;28;20120;-72
2022/04/07 08:16:34;;;;;;;5.43;0.40;;;;;;;-146.34;100.00;58536.06;5032187;28;20035;-71
2022/04/07 08:19:00;;;;;;;3.57;0.50;;;;;;;-146.34;100.00;58536.06;5029439;28;20034;-72
2022/04/07 08:21:25;;;;;;;2.17;0.70;;;;;;;-146.34;100.00;58536.06;5028668;28;20109;-72
2022/04/07 08:23:53;;;;;;;5.18;0.70;;;;;;;-146.34;100.00;58536.06;5024243;28;20103;-72
2022/04/07 08:26:19;;;;;;;4.80;0.60;;;;;;;-146.34;100.00;58536.06;5030498;28;20029;-71
2022/04/07 08:28:45;;;;;;;1.40;0.47;;;;;;;-146.34;100.00;58536.06;5015756;28;20071;-71
2022/04/07 08:31:10;;;;;;;3.67;0.90;;;;;;;-146.34;100.00;58536.06;5024482;28;20038;-71
2022/04/07 08:33:36;;;;;;;4.55;0.52;;;;;;;-146.34;100.00;58536.06;5029355;28;20029;-72
2022/04/07 08:36:01;;;;;;;8.38;0.70;;;;;;;-146.34;100.00;58536.06;5017047;28;20500;-72
2022/04/07 08:38:27;;;;;;;3.07;0.57;;;;;;;-146.34;100.00;58536.06;5017712;28;20036;-72
2022/04/07 08:40:54;;;;;;;9.07;0.87;;;;;;;-146.34;100.00;58536.06;5026826;28;20036;-72
2022/04/07 08:43:20;;;;;;;2.07;0.70;;;;;;;-146.34;100.00;58536.06;5022101;28;20040;-72
2022/04/07 08:45:45;;;;;;;5.40;0.80;;;;;;;-146.34;100.00;58536.06;5023923;28;20456;-72
2022/04/07 08:48:12;;;;;;;3.30;0.77;;;;;;;-146.34;100.00;58536.06;5028075;28;20033;-72
2022/04/07 08:50:42;;;;;;;13.77;1.13;;;;;;;-146.34;100.00;58536.06;5029157;28;20017;-71
2022/04/07 08:53:08;;;;;;;5.80;1.30;;;;;;;-146.34;100.00;58536.06;5031015;28;20013;-72
2022/04/07 08:55:33;;;;;;;5.33;1.20;;;;;;;-146.34;100.00;58536.06;5031088;28;20025;-71
2022/04/07 08:58:00;;;;;;;6.23;1.17;;;;;;;-146.34;100.00;58536.06;5024534;28;20079;-71
2022/04/07 09:00:26;;;;;;;11.07;1.13;;;;;;;-146.34;100.00;58536.06;5031686;28;20065;-72
2022/04/07 09:02:55;;;;;;;8.43;1.00;;;;;;;-146.34;100.00;58536.06;5030419;28;20064;-71
2022/04/07 09:05:24;;;;;;;8.83;0.70;;;;;;;-146.34;100.00;58536.06;5011697;28;20033;-72
2022/04/07 09:07:52;;;;;;;4.97;0.67;;;;;;;-146.34;100.00;58536.06;5013779;28;20025;-72
2022/04/07 09:10:19;;;;;;;8.80;0.93;;;;;;;-146.34;100.00;58536.06;5021166;28;20495;-72
2022/04/07 09:12:45;;;;;;;8.40;1.00;;;;;;;-146.34;100.00;58536.06;5026340;28;20025;-72
2022/04/07 09:15:12;;;;;;;6.73;1.93;;;;;;;-146.34;100.00;58536.06;5044317;28;20030;-71
2022/04/07 09:17:55;;;;;;;4.97;1.47;;;;;;;-146.34;100.00;58536.06;5028299;28;20036;-72
2022/04/07 09:20:22;;;;;;;4.25;1.05;;;;;;;-146.34;100.00;58536.06;5030548;28;20036;-72
2022/04/07 09:22:58;;;;;;;7.70;1.20;;;;;;;-146.34;100.00;58536.06;5025117;28;20045;-72
2022/04/07 09:25:24;;;;;;;7.65;1.17;;;;;;;-146.34;100.00;58536.06;5035229;28;20103;-72
2022/04/07 09:27:49;;;;;;;6.43;1.00;;;;;;;-146.34;100.00;58536.06;5023108;28;20061;-72
2022/04/07 09:30:15;;;;;;;6.22;1.83;;;;;;;-146.34;100.00;58536.06;5030258;28;20068;-72
2022/04/07 09:32:45;;;;;;;6.93;1.25;;;;;;;-146.34;100.00;58536.06;5028159;28;20035;-72
2022/04/07 09:35:11;;;;;;;5.33;1.10;;;;;;;-146.34;100.00;58536.06;5025941;28;20033;-72
2022/04/07 09:37:40;;;;;;;11.23;1.50;;;;;;;-146.34;100.00;58536.06;5019878;28;20504;-73
2022/04/07 09:40:14;;;;;;;5.93;0.70;;;;;;;-146.34;100.00;58536.06;5025121;28;20134;-72
2022/04/07 09:42:43;;;;;;;7.10;1.00;;;;;;;-146.34;100.00;58536.06;5015564;28;20033;-72
2022/04/07 09:45:13;;;;;;;7.30;1.30;;;;;;;-146.34;100.00;58536.06;5029080;28;20029;-72
2022/04/07 09:47:44;;;;;;;7.80;1.20;;;;;;;-146.34;100.00;58536.06;5026461;28;20025;-75
2022/04/07 09:50:20;;;;;;;4.53;1.27;;;;;;;-146.34;100.00;58536.06;5017024;28;20086;-72
2022/04/07 09:53:06;;;;;;;6.00;1.27;;;;;;;-146.34;100.00;58536.06;5016088;28;20030;-72
2022/04/07 09:55:36;;;;;;;11.17;1.33;;;;;;;-146.34;100.00;58536.06;5025018;28;20025;-72
2022/04/07 09:58:04;;;;;;;4.83;1.40;;;;;;;-146.34;100.00;58536.06;5025223;28;20079;-73
2022/04/07 10:00:30;;;;;;;6.50;2.27;;;;;;;-146.34;100.00;58536.06;5021481;28;20355;-72
2022/04/07 10:02:57;;;;;;;13.07;1.53;;;;;;;-146.34;100.00;58536.06;5027612;28;20037;-72
2022/04/07 10:05:23;;;;;;;5.17;1.20;;;;;;;-146.34;100.00;58536.06;5028213;28;20029;-72
2022/04/07 10:07:49;;;;;;;37.93;2.50;;;;;;;-146.34;100.00;58536.06;5021029;28;20536;-72
2022/04/07 10:10:15;;;;;;;7.33;1.20;;;;;;;-146.34;100.00;58536.06;5025780;28;20091;-73
2022/04/07 10:12:40;;;;;;;10.87;1.73;;;;;;;-146.34;100.00;58536.06;5037314;28;20033;-73
2022/04/07 10:15:06;;;;;;;12.87;1.93;;;;;;;-146.34;100.00;58536.06;5028811;28;20025;-72
2022/04/07 10:17:35;;;;;;;22.60;2.30;;;;;;;-146.34;100.00;58536.06;5004416;28;20022;-72
2022/04/07 10:20:05;;;;;;;11.83;1.67;;;;;;;-146.34;100.00;58536.06;5024202;28;20037;-72
2022/04/07 10:22:44;;;;;;;9.87;2.20;;;;;;;-146.34;100.00;58536.06;5024827;28;20053;-72
2022/04/07 10:25:11;;;;;;;5.80;1.10;;;;;;;-146.34;100.00;58536.06;5028167;28;20124;-72
2022/04/07 10:27:46;;;;;;;10.67;1.83;;;;;;;-146.34;100.00;58536.06;5028627;28;20066;-73
2022/04/07 10:30:16;;;;;;;28.00;3.13;;;;;;;-146.34;100.00;58536.06;5029429;28;20092;-73
2022/04/07 10:32:43;;;;;;;11.93;1.30;;;;;;;-146.34;100.00;58536.06;5029046;28;20480;-73
2022/04/07 10:35:10;;;;;;;17.40;1.80;;;;;;;-146.34;100.00;58536.06;5031182;28;20025;-74
2022/04/07 10:37:46;;;;;;;17.80;2.43;;;;;;;-146.34;100.00;58536.06;5023329;28;20060;-73
2022/04/07 10:40:34;;;;;;;9.67;1.50;;;;;;;-146.34;100.00;58536.06;5019890;28;20116;-72
2022/04/07 10:43:05;;;;;;;12.10;1.27;;;;;;;-146.34;100.00;58536.06;5021924;28;20091;-72
2022/04/07 10:45:33;;;;;;;8.77;1.60;;;;;;;-146.34;100.00;58536.06;5025876;28;20112;-72
2022/04/07 10:48:17;;;;;;;12.67;1.70;;;;;;;-146.34;100.00;58536.06;5026548;28;20108;-74
2022/04/07 10:50:54;;;;;;;7.23;1.40;;;;;;;-146.34;100.00;58536.06;5029814;28;20028;-72
2022/04/07 10:53:32;;;;;;;15.37;2.13;;;;;;;-146.34;100.00;58536.06;5022633;28;20124;-74
2022/04/07 10:56:08;;;;;;;11.23;2.27;;;;;;;-146.34;100.00;58536.06;5012882;28;20474;-73
2022/04/07 10:58:46;;;;;;;7.40;1.67;;;;;;;-146.34;100.00;58536.06;5019559;28;20037;-73
2022/04/07 11:01:30;;;;;;;18.97;1.93;;;;;;;-146.34;100.00;58536.06;5028946;28;20390;-73
2022/04/07 11:04:23;;;;;;;13.90;1.83;;;;;;;-146.34;100.00;58536.06;5017473;28;20053;-75
2022/04/07 11:07:16;;;;;;;18.00;1.83;;;;;;;-146.34;100.00;58536.06;5022606;28;20485;-72
2022/04/07 11:09:41;;;;;;;13.35;1.33;;;;;;;-146.34;100.00;58536.06;5025790;28;20041;-73
2022/04/07 11:12:11;;;;;;;11.43;2.00;;;;;;;-146.34;100.00;58536.06;5020194;28;20033;-74
2022/04/07 11:14:37;;;;;;;6.63;1.50;;;;;;;-146.34;100.00;58536.06;5026527;28;20022;-73
2022/04/07 11:17:06;;;;;;;8.30;2.10;;;;;;;-146.34;100.00;58536.06;5020201;28;20030;-73
2022/04/07 11:20:04;;;;;;;14.27;2.23;;;;;;;-146.34;100.00;58536.06;5027844;28;20036;-73